Time;durP1;ratioP1;P1;durP2;ratioP2;P2;SDS_P1;SDS_P2;PMS_P1;PMS_P2;Temp;Humidity;BMP_temperature;BMP_pressure;BME280_temperature;BME280_humidity;BME280_pressure;Samples;Min_cycle;Max_cycle;Signal;HPM_P1;HPM_P2
2022/06/15 00:04:48;;;;;;;5.13;3.30;;;9.60;99.90;;;;;;10456486;28;20020;-82
2022/06/15 00:09:48;;;;;;;5.23;3.40;;;9.60;99.90;;;;;;10455219;28;20048;-81
2022/06/15 00:14:49;;;;;;;5.60;3.20;;;9.50;99.90;;;;;;10458517;28;20025;-82
2022/06/15 00:19:50;;;;;;;7.17;3.90;;;9.50;99.90;;;;;;10455356;28;20028;-82
2022/06/15 00:24:50;;;;;;;8.30;3.43;;;9.50;99.90;;;;;;10461239;28;20040;-82
2022/06/15 00:29:51;;;;;;;7.10;3.90;;;9.70;99.90;;;;;;10451336;28;20028;-82
2022/06/15 00:34:52;;;;;;;6.73;3.53;;;9.90;99.90;;;;;;10455520;28;20104;-82
2022/06/15 00:39:52;;;;;;;7.70;3.63;;;9.90;99.90;;;;;;10472289;28;20048;-84
2022/06/15 00:44:53;;;;;;;9.33;3.33;;;10.10;99.90;;;;;;10434135;28;20113;-83
2022/06/15 00:50:03;;;;;;;4.60;3.03;;;10.20;99.90;;;;;;10438559;28;20033;-82
2022/06/15 00:55:14;;;;;;;5.45;3.15;;;10.40;99.90;;;;;;10436451;28;20025;-83
2022/06/15 01:00:16;;;;;;;9.18;4.88;;;10.50;99.90;;;;;;10445850;28;20074;-82
2022/06/15 01:05:20;;;;;;;8.85;4.93;;;10.60;99.90;;;;;;10429390;28;20074;-82
2022/06/15 01:10:46;;;;;;;7.40;4.57;;;10.60;99.90;;;;;;10453650;28;20061;-82
2022/06/15 01:15:59;;;;;;;8.13;5.35;;;10.60;99.90;;;;;;10460339;28;20009;-83
2022/06/15 01:21:12;;;;;;;9.15;5.35;;;10.60;99.90;;;;;;10464389;28;20032;-82
2022/06/15 01:26:41;;;;;;;8.60;5.32;;;10.60;99.90;;;;;;10439023;28;20402;-82
2022/06/15 01:31:54;;;;;;;11.32;5.20;;;10.70;99.90;;;;;;10461954;28;20070;-82
2022/06/15 01:37:32;;;;;;;10.68;5.40;;;10.70;99.90;;;;;;10472897;28;21140;-83
2022/06/15 01:42:55;;;;;;;7.85;5.18;;;10.80;99.90;;;;;;10458306;28;20072;-83
2022/06/15 01:47:59;;;;;;;8.68;5.47;;;11.00;99.90;;;;;;10460983;28;20021;-83
2022/06/15 01:53:10;;;;;;;7.85;5.32;;;11.00;99.90;;;;;;10458854;28;20029;-82
2022/06/15 01:58:14;;;;;;;12.32;4.95;;;11.10;99.90;;;;;;10457574;28;20040;-83
2022/06/15 02:03:25;;;;;;;8.27;4.60;;;11.10;99.90;;;;;;10469313;28;20336;-83
2022/06/15 02:08:37;;;;;;;11.10;5.03;;;11.20;99.90;;;;;;10459375;28;20040;-82
2022/06/15 02:13:40;;;;;;;8.40;4.47;;;11.20;99.90;;;;;;10460363;28;20206;-82
2022/06/15 02:18:46;;;;;;;9.45;5.15;;;11.20;99.90;;;;;;10461086;28;20065;-83
2022/06/15 02:23:50;;;;;;;9.15;5.13;;;11.10;99.90;;;;;;10462350;28;20025;-82
2022/06/15 02:28:56;;;;;;;15.20;5.55;;;11.20;99.90;;;;;;10456419;28;20079;-82
2022/06/15 02:33:59;;;;;;;7.75;4.85;;;11.10;99.90;;;;;;10452720;28;20075;-82
2022/06/15 02:39:01;;;;;;;10.80;5.30;;;11.10;99.90;;;;;;10454752;28;20116;-82
2022/06/15 02:44:04;;;;;;;11.40;5.32;;;11.20;99.90;;;;;;10469586;28;20057;-83
2022/06/15 02:49:06;;;;;;;12.63;5.78;;;11.10;99.90;;;;;;10445645;28;20027;-82
2022/06/15 02:54:14;;;;;;;11.40;5.88;;;11.10;99.90;;;;;;10466786;28;20021;-82
2022/06/15 02:59:15;;;;;;;11.50;6.10;;;11.10;99.90;;;;;;10474105;28;20486;-82
2022/06/15 03:04:15;;;;;;;13.38;6.22;;;11.20;99.90;;;;;;10478711;28;20023;-82
2022/06/15 03:09:16;;;;;;;10.40;5.30;;;11.20;99.90;;;;;;10460574;28;20243;-82
2022/06/15 03:14:17;;;;;;;10.18;5.60;;;11.20;99.90;;;;;;10463219;28;20108;-82
2022/06/15 03:19:17;;;;;;;11.60;5.93;;;11.30;99.90;;;;;;10458007;28;20033;-83
2022/06/15 03:24:18;;;;;;;11.15;5.05;;;11.40;99.90;;;;;;10466192;28;20037;-84
2022/06/15 03:29:19;;;;;;;10.25;5.57;;;11.40;99.90;;;;;;10443092;28;20021;-82
2022/06/15 03:34:20;;;;;;;8.95;5.43;;;11.50;99.90;;;;;;10454905;28;20240;-82
2022/06/15 03:39:20;;;;;;;14.73;5.88;;;11.70;99.90;;;;;;10452368;28;20044;-84
2022/06/15 03:44:21;;;;;;;11.80;6.03;;;11.80;99.90;;;;;;10455863;28;20052;-84
2022/06/15 03:49:21;;;;;;;11.90;5.63;;;11.90;99.90;;;;;;10442830;28;20551;-82
2022/06/15 03:54:22;;;;;;;7.22;4.53;;;11.80;99.90;;;;;;10473760;28;20028;-83
2022/06/15 03:59:24;;;;;;;7.30;4.22;;;11.90;99.90;;;;;;10460831;28;20021;-83
2022/06/15 04:04:24;;;;;;;8.40;4.45;;;11.90;99.90;;;;;;10440688;28;20067;-84
2022/06/15 04:09:27;;;;;;;7.22;4.32;;;11.90;99.90;;;;;;10457040;28;20148;-84
2022/06/15 04:14:31;;;;;;;9.68;4.72;;;12.00;99.90;;;;;;10460732;28;20032;-82
2022/06/15 04:19:32;;;;;;;8.32;3.78;;;12.10;99.90;;;;;;10470746;28;20107;-82
2022/06/15 04:24:33;;;;;;;7.47;4.35;;;11.90;99.90;;;;;;10481433;28;20036;-83
2022/06/15 04:29:35;;;;;;;7.55;4.65;;;11.90;99.90;;;;;;10469599;28;20114;-83
2022/06/15 04:34:36;;;;;;;7.93;4.18;;;11.90;99.90;;;;;;10465475;28;20564;-83
2022/06/15 04:39:37;;;;;;;8.98;5.00;;;11.80;99.90;;;;;;10466907;28;20357;-83
2022/06/15 04:44:37;;;;;;;7.35;4.45;;;11.90;99.90;;;;;;10453236;28;20033;-83
2022/06/15 04:49:38;;;;;;;8.85;4.70;;;12.10;99.90;;;;;;10454367;28;20029;-84
2022/06/15 04:54:39;;;;;;;11.50;5.10;;;12.30;99.90;;;;;;10458207;28;20036;-82
2022/06/15 04:59:40;;;;;;;8.00;3.88;;;12.50;99.90;;;;;;10462256;28;20037;-82
2022/06/15 05:04:41;;;;;;;7.90;3.35;;;12.70;99.90;;;;;;10461683;28;20017;-83
2022/06/15 05:09:47;;;;;;;8.80;3.88;;;12.90;99.90;;;;;;10457102;28;20135;-84
2022/06/15 05:14:47;;;;;;;7.05;4.03;;;13.10;99.90;;;;;;10448943;28;20036;-83
2022/06/15 05:19:48;;;;;;;11.05;3.80;;;13.30;99.90;;;;;;10458591;28;20041;-82
2022/06/15 05:24:49;;;;;;;8.52;3.63;;;13.50;99.90;;;;;;10475285;28;20469;-82
2022/06/15 05:29:49;;;;;;;7.97;3.22;;;13.70;99.90;;;;;;10460645;28;20025;-84
2022/06/15 05:34:50;;;;;;;8.05;3.83;;;13.90;99.90;;;;;;10467103;28;20506;-81
2022/06/15 05:39:51;;;;;;;7.70;4.50;;;14.20;99.90;;;;;;10468106;28;20036;-81
2022/06/15 05:44:53;;;;;;;8.55;3.72;;;14.30;99.90;;;;;;10490227;28;20020;-81
2022/06/15 05:49:54;;;;;;;8.68;4.28;;;14.50;99.90;;;;;;10462176;28;20017;-81
2022/06/15 05:54:58;;;;;;;6.50;2.83;;;14.70;99.90;;;;;;10458730;28;20074;-81
2022/06/15 05:59:59;;;;;;;6.75;3.00;;;14.90;99.90;;;;;;10455386;28;20029;-82
2022/06/15 06:04:59;;;;;;;6.38;3.40;;;15.00;98.90;;;;;;10469614;28;20028;-83
2022/06/15 06:10:00;;;;;;;7.57;2.75;;;15.20;98.50;;;;;;10453042;28;20057;-85
2022/06/15 06:15:01;;;;;;;8.30;2.92;;;15.40;95.60;;;;;;10443161;28;20036;-83
2022/06/15 06:20:02;;;;;;;8.90;3.35;;;15.50;95.80;;;;;;10461125;28;20027;-84
2022/06/15 06:25:03;;;;;;;5.95;2.25;;;15.70;94.30;;;;;;10482191;28;20021;-83
2022/06/15 06:30:05;;;;;;;6.32;2.42;;;16.20;93.10;;;;;;10458372;28;20120;-82
2022/06/15 06:35:07;;;;;;;5.78;2.35;;;16.60;92.70;;;;;;10479541;28;20099;-84
2022/06/15 06:40:13;;;;;;;2.75;1.92;;;16.50;90.80;;;;;;10465609;28;20084;-82
2022/06/15 06:45:13;;;;;;;6.07;2.47;;;16.60;90.80;;;;;;10460245;28;20020;-83
2022/06/15 06:50:14;;;;;;;4.10;2.05;;;16.60;90.50;;;;;;10450687;28;20031;-84
2022/06/15 06:55:15;;;;;;;3.17;2.10;;;17.40;88.00;;;;;;10457473;28;20103;-85
2022/06/15 07:00:17;;;;;;;4.47;1.95;;;18.90;82.40;;;;;;10473317;28;20036;-86
2022/06/15 07:05:18;;;;;;;3.97;1.98;;;20.20;78.80;;;;;;10445337;28;20017;-84
2022/06/15 07:10:18;;;;;;;5.22;1.70;;;21.30;71.80;;;;;;10478645;28;20055;-83
2022/06/15 07:15:20;;;;;;;6.45;2.35;;;22.10;72.30;;;;;;10511386;28;20031;-83
2022/06/15 07:20:21;;;;;;;5.22;2.00;;;22.30;66.10;;;;;;10514487;28;20047;-85
2022/06/15 07:25:21;;;;;;;8.98;2.10;;;22.80;69.00;;;;;;10506150;28;20031;-85
2022/06/15 07:30:25;;;;;;;5.30;2.22;;;23.10;66.30;;;;;;10506674;28;20036;-84
2022/06/15 07:35:31;;;;;;;5.47;2.92;;;23.30;67.30;;;;;;10523976;28;20430;-84
2022/06/15 07:40:33;;;;;;;6.78;2.65;;;23.40;67.00;;;;;;10511784;28;20498;-85
2022/06/15 07:45:34;;;;;;;3.15;1.92;;;22.70;64.60;;;;;;10544752;27;20107;-84
2022/06/15 07:50:35;;;;;;;3.70;1.83;;;22.40;65.80;;;;;;10507443;28;20762;-85
2022/06/15 07:55:38;;;;;;;7.55;2.30;;;22.50;67.10;;;;;;10515155;28;20016;-84
2022/06/15 08:00:41;;;;;;;8.50;2.60;;;22.50;63.30;;;;;;10513266;28;20064;-85
2022/06/15 08:05:46;;;;;;;4.22;2.05;;;22.00;64.40;;;;;;10528699;28;20028;-85
2022/06/15 08:10:48;;;;;;;8.85;2.70;;;21.90;67.50;;;;;;10473107;28;20033;-86
2022/06/15 08:15:50;;;;;;;4.97;2.13;;;21.90;68.40;;;;;;10471422;28;20023;-84
2022/06/15 08:20:57;;;;;;;5.90;2.28;;;22.00;69.70;;;;;;10458200;28;20020;-85
2022/06/15 08:26:02;;;;;;;4.15;2.20;;;22.00;63.80;;;;;;10466231;28;20103;-85
2022/06/15 08:31:03;;;;;;;5.20;2.30;;;22.20;68.30;;;;;;10460365;28;20087;-85
2022/06/15 08:36:05;;;;;;;5.07;2.38;;;22.00;65.10;;;;;;10474949;28;20037;-85
2022/06/15 08:41:18;;;;;;;6.28;2.80;;;21.20;66.60;;;;;;10478004;28;20048;-85
2022/06/15 08:46:25;;;;;;;7.38;2.65;;;20.50;68.30;;;;;;10478268;28;20023;-84
2022/06/15 08:51:40;;;;;;;3.88;2.58;;;21.10;68.60;;;;;;10460888;28;20029;-84
2022/06/15 08:56:51;;;;;;;7.60;2.83;;;21.80;66.20;;;;;;10467048;28;20021;-86
2022/06/15 09:02:04;;;;;;;7.10;3.40;;;22.20;66.60;;;;;;10462682;28;20045;-87
2022/06/15 09:07:17;;;;;;;7.82;4.05;;;22.40;65.70;;;;;;10452142;28;20039;-85
2022/06/15 09:12:50;;;;;;;5.93;2.92;;;22.90;65.10;;;;;;10515752;28;20036;-85
2022/06/15 09:17:53;;;;;;;9.48;3.92;;;22.50;67.10;;;;;;10507599;28;20027;-83
2022/06/15 09:23:14;;;;;;;9.60;3.40;;;22.10;63.70;;;;;;10511861;28;20109;-84
2022/06/15 09:28:25;;;;;;;7.45;3.40;;;22.40;64.50;;;;;;10511564;28;20460;-86
2022/06/15 09:33:32;;;;;;;5.25;3.55;;;22.30;63.90;;;;;;10503832;28;20023;-86
2022/06/15 09:38:33;;;;;;;8.88;3.22;;;22.50;66.90;;;;;;10505011;28;20736;-84
2022/06/15 09:44:03;;;;;;;6.03;3.15;;;22.50;64.60;;;;;;10518142;28;20020;-84
2022/06/15 09:49:34;;;;;;;8.38;3.60;;;22.40;64.10;;;;;;10512906;28;20040;-86
2022/06/15 09:54:52;;;;;;;8.05;3.63;;;22.50;68.50;;;;;;10524175;28;20027;-85
2022/06/15 09:59:53;;;;;;;9.38;3.90;;;22.40;63.70;;;;;;10508179;28;20073;-86
2022/06/15 10:04:54;;;;;;;6.88;3.20;;;22.00;65.70;;;;;;10508903;28;20069;-84
2022/06/15 10:10:01;;;;;;;5.75;3.00;;;21.80;64.50;;;;;;10484119;28;20044;-82
2022/06/15 10:15:07;;;;;;;8.68;3.40;;;21.40;64.70;;;;;;10455805;28;20024;-84
2022/06/15 10:20:32;;;;;;;8.38;3.40;;;21.00;65.00;;;;;;10459821;28;20582;-84
2022/06/15 10:25:37;;;;;;;7.45;3.08;;;20.90;65.90;;;;;;10470164;28;20032;-84
2022/06/15 10:30:50;;;;;;;6.60;2.78;;;20.70;69.00;;;;;;10449177;28;20468;-83
2022/06/15 10:35:56;;;;;;;5.95;2.47;;;21.90;70.40;;;;;;10448985;28;20029;-85
2022/06/15 10:41:45;;;;;;;6.60;2.40;;;22.80;65.60;;;;;;10449882;28;20033;-83
2022/06/15 10:46:21;;;;;;;7.75;2.70;;;23.00;61.20;;;;;;10482643;28;20044;-83
2022/06/15 10:51:42;;;;;;;6.30;2.80;;;23.20;68.00;;;;;;10491134;28;20013;-84
2022/06/15 11:02:28;;;;;;;5.95;2.15;;;23.70;63.00;;;;;;10491320;28;20372;-83
2022/06/15 11:07:46;;;;;;;4.47;1.80;;;24.10;61.20;;;;;;10472785;28;20673;-85
2022/06/15 11:13:16;;;;;;;2.65;1.63;;;24.60;60.30;;;;;;10491759;28;20108;-83
2022/06/15 11:18:39;;;;;;;6.82;2.20;;;24.80;61.80;;;;;;10440907;28;20358;-83
2022/06/15 11:24:10;;;;;;;4.63;2.20;;;25.20;64.50;;;;;;10468559;28;20036;-83
2022/06/15 11:29:38;;;;;;;4.25;1.83;;;25.40;63.20;;;;;;10448351;28;20039;-83
2022/06/15 11:34:49;;;;;;;5.00;2.05;;;25.40;60.90;;;;;;10492354;28;20367;-83
2022/06/15 11:39:56;;;;;;;4.97;2.15;;;25.20;58.80;;;;;;10444102;28;20457;-84
2022/06/15 11:44:57;;;;;;;7.07;2.35;;;25.20;57.70;;;;;;10450671;28;20470;-83
2022/06/15 11:50:24;;;;;;;5.18;1.90;;;25.00;59.00;;;;;;10461569;28;20116;-85
2022/06/15 11:55:46;;;;;;;4.70;2.35;;;25.10;61.20;;;;;;10454258;28;20033;-85
2022/06/15 12:01:14;;;;;;;4.32;1.67;;;25.20;61.10;;;;;;10438423;28;20511;-83
2022/06/15 12:06:27;;;;;;;5.90;2.28;;;25.50;60.50;;;;;;10446646;28;20033;-83
2022/06/15 12:17:24;;;;;;;3.80;1.73;;;25.70;58.20;;;;;;10498173;28;20463;-83
2022/06/15 12:22:41;;;;;;;4.18;1.80;;;25.70;59.20;;;;;;10540136;28;20457;-83
2022/06/15 12:28:09;;;;;;;4.47;1.92;;;25.70;59.50;;;;;;10492554;28;20023;-83
2022/06/15 12:33:19;;;;;;;2.83;1.92;;;25.50;56.00;;;;;;10486955;28;20123;-83
2022/06/15 12:38:44;;;;;;;4.00;2.20;;;25.30;63.10;;;;;;10487597;28;20691;-83
2022/06/15 12:43:45;;;;;;;47.65;20.30;;;25.50;60.40;;;;;;10488144;28;20371;-85
2022/06/15 12:49:17;;;;;;;3.10;1.83;;;25.40;59.30;;;;;;10487822;28;20025;-83
2022/06/15 12:54:46;;;;;;;3.55;1.65;;;25.30;56.20;;;;;;10503098;28;20054;-82
2022/06/15 13:00:21;;;;;;;4.20;1.73;;;24.80;59.80;;;;;;10504665;28;20040;-85
2022/06/15 13:05:31;;;;;;;6.90;1.73;;;25.20;59.30;;;;;;10487369;28;20112;-83
2022/06/15 13:10:32;;;;;;;3.10;1.48;;;25.30;60.90;;;;;;10490944;28;20044;-83
2022/06/15 13:15:51;;;;;;;1.58;1.27;;;25.50;58.80;;;;;;10522181;28;20009;-83
2022/06/15 13:21:00;;;;;;;85.63;39.03;;;25.60;58.20;;;;;;10497000;28;20391;-83
2022/06/15 13:26:15;;;;;;;21.38;10.05;;;25.60;58.30;;;;;;10509261;28;20527;-83
2022/06/15 13:31:45;;;;;;;15.73;5.82;;;25.20;57.90;;;;;;10524878;28;20055;-85
2022/06/15 13:37:11;;;;;;;5.40;2.78;;;25.20;55.60;;;;;;10496189;28;20410;-83
2022/06/15 13:42:24;;;;;;;5.78;2.58;;;24.80;59.70;;;;;;10494675;28;20502;-84
2022/06/15 13:47:30;;;;;;;3.28;1.60;;;24.60;59.10;;;;;;10496606;28;20028;-83
2022/06/15 13:52:34;;;;;;;3.13;1.67;;;24.30;58.70;;;;;;10494096;28;20016;-82
2022/06/15 13:57:56;;;;;;;6.90;2.92;;;23.90;59.80;;;;;;10497567;28;20024;-82
2022/06/15 14:02:57;;;;;;;2.53;1.50;;;23.90;60.50;;;;;;10493983;28;20025;-85
2022/06/15 14:08:19;;;;;;;4.65;1.52;;;23.70;60.80;;;;;;10535870;28;20048;-83
2022/06/15 14:13:25;;;;;;;5.40;2.00;;;23.30;57.40;;;;;;10461718;28;20118;-82
2022/06/15 14:18:37;;;;;;;2.25;1.33;;;23.20;59.10;;;;;;10460059;28;20020;-86
2022/06/15 14:23:38;;;;;;;4.65;1.90;;;22.90;62.10;;;;;;10465314;28;20051;-83
2022/06/15 14:28:39;;;;;;;3.53;1.58;;;23.20;61.20;;;;;;10454175;28;20021;-83
2022/06/15 14:33:40;;;;;;;4.25;1.90;;;23.20;61.40;;;;;;10450722;28;20032;-83
2022/06/15 14:38:43;;;;;;;3.90;1.60;;;23.20;60.90;;;;;;10442496;28;20028;-83
2022/06/15 14:43:46;;;;;;;5.75;2.60;;;23.30;63.20;;;;;;10451105;28;20119;-83
2022/06/15 14:48:50;;;;;;;3.00;1.65;;;23.30;63.60;;;;;;10463142;28;20036;-83
2022/06/15 14:54:13;;;;;;;4.60;1.95;;;23.20;62.50;;;;;;10454928;28;20044;-84
2022/06/15 14:59:49;;;;;;;2.60;1.40;;;23.10;62.10;;;;;;10449986;28;20081;-82
2022/06/15 15:04:55;;;;;;;3.78;1.67;;;23.00;60.50;;;;;;10446085;28;20049;-83
2022/06/15 15:09:55;;;;;;;4.28;2.15;;;22.80;61.60;;;;;;10480826;28;20381;-84
2022/06/15 15:14:56;;;;;;;4.05;2.15;;;22.80;63.30;;;;;;10452238;28;20071;-84
2022/06/15 15:19:57;;;;;;;5.68;1.75;;;22.80;62.70;;;;;;10449752;28;20036;-85
2022/06/15 15:25:05;;;;;;;6.50;3.25;;;22.80;63.60;;;;;;10463654;28;20025;-83
2022/06/15 15:35:32;;;;;;;12.55;6.00;;;22.80;62.50;;;;;;10449097;28;20052;-84
2022/06/15 15:40:33;;;;;;;3.80;1.80;;;22.70;62.30;;;;;;10456217;28;20033;-83
2022/06/15 15:45:34;;;;;;;14.60;3.92;;;22.60;63.00;;;;;;10452826;28;20071;-83
2022/06/15 15:50:34;;;;;;;3.60;1.80;;;22.50;63.90;;;;;;10480703;28;20642;-83
2022/06/15 15:55:36;;;;;;;4.38;1.73;;;22.40;63.20;;;;;;10471322;28;20029;-85
2022/06/15 16:00:38;;;;;;;2.38;1.60;;;22.30;64.10;;;;;;10465057;28;20025;-82
2022/06/15 16:05:41;;;;;;;11.48;5.93;;;22.30;62.80;;;;;;10450006;28;20036;-83
2022/06/15 16:10:46;;;;;;;2.97;1.73;;;22.20;64.50;;;;;;10496974;28;20086;-83
2022/06/15 16:15:51;;;;;;;4.82;2.30;;;22.20;62.90;;;;;;10504107;28;20078;-84
2022/06/15 16:20:54;;;;;;;4.10;1.73;;;22.10;64.00;;;;;;10508235;28;20102;-85
2022/06/15 16:25:54;;;;;;;4.30;1.50;;;22.00;61.50;;;;;;10511565;28;20056;-82
2022/06/15 16:30:55;;;;;;;5.68;1.90;;;22.00;63.30;;;;;;10512175;28;20707;-83
2022/06/15 16:35:57;;;;;;;4.03;1.67;;;21.90;62.00;;;;;;10511675;28;20372;-85
2022/06/15 16:41:10;;;;;;;3.95;1.85;;;21.90;62.40;;;;;;10505244;28;20060;-84
2022/06/15 16:46:14;;;;;;;4.05;1.52;;;21.80;63.00;;;;;;10513070;28;20066;-83
2022/06/15 16:51:16;;;;;;;2.80;1.60;;;21.80;61.20;;;;;;10519874;28;20098;-84
2022/06/15 16:56:24;;;;;;;2.03;1.23;;;21.80;62.50;;;;;;10552199;27;20016;-84
2022/06/15 17:01:25;;;;;;;3.25;1.50;;;21.70;63.00;;;;;;10507002;28;20032;-85
2022/06/15 17:06:26;;;;;;;5.18;2.25;;;21.60;64.60;;;;;;10518681;28;20032;-83
2022/06/15 17:11:27;;;;;;;2.97;1.70;;;21.40;64.70;;;;;;10520519;28;20047;-83
2022/06/15 17:16:27;;;;;;;3.70;1.73;;;21.20;66.20;;;;;;10515670;28;20462;-83
2022/06/15 17:21:28;;;;;;;2.05;1.58;;;21.10;67.10;;;;;;10518996;28;20040;-83
2022/06/15 17:26:33;;;;;;;2.80;2.00;;;21.00;70.70;;;;;;10540651;28;20032;-83
2022/06/15 17:31:36;;;;;;;6.38;1.67;;;20.80;71.30;;;;;;10497201;28;20086;-83
2022/06/15 17:36:37;;;;;;;4.93;2.00;;;20.50;73.30;;;;;;10516956;28;20028;-84
2022/06/15 17:41:42;;;;;;;3.28;2.20;;;20.20;75.50;;;;;;10521446;28;20033;-83
2022/06/15 17:46:43;;;;;;;3.65;2.40;;;19.90;78.40;;;;;;10508102;28;20016;-83
2022/06/15 17:51:45;;;;;;;8.05;2.58;;;19.50;79.60;;;;;;10515642;28;20024;-82
2022/06/15 17:56:47;;;;;;;5.53;2.78;;;19.30;79.10;;;;;;10519851;28;20024;-84
2022/06/15 18:01:51;;;;;;;5.40;2.35;;;19.10;80.50;;;;;;10515236;28;20036;-83
2022/06/15 18:06:51;;;;;;;5.35;2.55;;;18.70;81.50;;;;;;10508802;28;20016;-83
2022/06/15 18:11:52;;;;;;;5.07;2.40;;;18.60;83.10;;;;;;10463442;28;20044;-83
2022/06/15 18:16:55;;;;;;;6.05;2.58;;;18.40;84.30;;;;;;10469109;28;20114;-83
2022/06/15 18:21:56;;;;;;;5.82;2.88;;;18.00;86.40;;;;;;10455589;28;20027;-84
2022/06/15 18:26:57;;;;;;;6.22;3.05;;;17.60;88.10;;;;;;10460258;28;20035;-87
2022/06/15 18:32:08;;;;;;;6.43;3.25;;;17.30;89.90;;;;;;10479628;28;20066;-84
2022/06/15 18:37:10;;;;;;;5.97;3.10;;;17.00;90.90;;;;;;10448075;28;20104;-85
2022/06/15 18:42:12;;;;;;;4.95;3.05;;;16.80;91.80;;;;;;10475687;28;20064;-83
2022/06/15 18:52:32;;;;;;;4.30;3.65;;;16.40;94.50;;;;;;10464302;28;20484;-83
2022/06/15 18:57:33;;;;;;;4.85;3.85;;;16.30;95.80;;;;;;10463095;28;20036;-85
2022/06/15 19:02:37;;;;;;;5.93;3.78;;;16.10;98.20;;;;;;10482361;28;20628;-84
2022/06/15 19:07:38;;;;;;;6.43;3.80;;;15.90;99.90;;;;;;10451535;28;20041;-84
2022/06/15 19:12:39;;;;;;;6.53;4.43;;;15.80;99.90;;;;;;10466490;28;20021;-83
2022/06/15 19:17:41;;;;;;;4.43;3.30;;;15.60;99.90;;;;;;10487808;28;20021;-85
2022/06/15 19:22:42;;;;;;;8.63;4.22;;;15.50;99.90;;;;;;10472496;28;20033;-84
2022/06/15 19:27:47;;;;;;;8.25;4.47;;;15.50;99.90;;;;;;10451959;28;20072;-83
2022/06/15 19:32:51;;;;;;;6.07;3.80;;;15.60;99.90;;;;;;10477250;28;20068;-83
2022/06/15 19:37:52;;;;;;;7.13;4.47;;;15.90;99.90;;;;;;10458448;28;20104;-84
2022/06/15 19:43:00;;;;;;;8.63;4.70;;;15.90;99.90;;;;;;10459940;28;20460;-84
2022/06/15 19:48:01;;;;;;;6.82;4.75;;;15.90;99.90;;;;;;10447844;28;20103;-83
2022/06/15 19:53:03;;;;;;;9.52;4.63;;;16.00;99.90;;;;;;10479724;28;20025;-84
2022/06/15 19:58:03;;;;;;;10.65;5.05;;;15.80;99.90;;;;;;10462882;28;20045;-85
2022/06/15 20:03:04;;;;;;;6.78;4.35;;;15.60;99.90;;;;;;10456285;28;20127;-83
2022/06/15 20:08:10;;;;;;;12.02;4.53;;;15.40;99.90;;;;;;10453422;28;20057;-84
2022/06/15 20:13:11;;;;;;;9.32;4.88;;;15.40;99.90;;;;;;10476692;28;20029;-84
2022/06/15 20:18:17;;;;;;;8.25;4.85;;;15.20;99.90;;;;;;10456115;28;20021;-83
2022/06/15 20:23:19;;;;;;;;;;;15.10;99.90;;;;;;10453136;28;20826;-83
2022/06/15 20:28:34;;;;;;;7.93;4.43;;;15.00;99.90;;;;;;10456459;28;19905;-83
2022/06/15 20:33:35;;;;;;;7.40;4.47;;;14.80;99.90;;;;;;10441711;28;20046;-85
2022/06/15 20:38:35;;;;;;;8.70;5.15;;;14.70;99.90;;;;;;10468313;28;20095;-83
2022/06/15 20:43:40;;;;;;;9.77;4.70;;;14.50;99.90;;;;;;10484844;28;20020;-83
2022/06/15 20:48:40;;;;;;;7.97;4.93;;;14.40;99.90;;;;;;10482709;28;20029;-84
2022/06/15 20:53:42;;;;;;;6.28;4.60;;;14.50;99.90;;;;;;10462882;28;20024;-86
2022/06/15 20:58:42;;;;;;;8.52;4.72;;;14.50;99.90;;;;;;10459961;28;20657;-85
2022/06/15 21:03:43;;;;;;;10.85;5.38;;;14.50;99.90;;;;;;10483488;28;20032;-86
2022/06/15 21:08:45;;;;;;;8.52;4.50;;;14.40;99.90;;;;;;10497890;28;20055;-83
2022/06/15 21:19:05;;;;;;;6.28;3.97;;;14.30;99.90;;;;;;10507450;28;20037;-84
2022/06/15 21:24:08;;;;;;;8.20;4.70;;;14.30;99.90;;;;;;10512419;28;20027;-86
2022/06/15 21:29:12;;;;;;;9.48;4.43;;;14.30;99.90;;;;;;10522172;28;20028;-84
2022/06/15 21:34:13;;;;;;;11.50;4.30;;;14.20;99.90;;;;;;10509340;28;20017;-84
2022/06/15 21:39:14;;;;;;;10.25;5.45;;;14.00;99.90;;;;;;10527488;28;20042;-83
2022/06/15 21:44:14;;;;;;;8.27;4.88;;;13.90;99.90;;;;;;10549669;28;20110;-83
2022/06/15 21:49:15;;;;;;;9.63;4.95;;;14.10;99.90;;;;;;10518411;28;20641;-85
2022/06/15 21:54:17;;;;;;;7.22;4.53;;;14.10;99.90;;;;;;10533854;27;20027;-83
2022/06/15 21:59:18;;;;;;;9.52;4.10;;;14.00;99.90;;;;;;10534226;28;20024;-82
2022/06/15 22:04:19;;;;;;;6.13;4.47;;;13.90;99.90;;;;;;10534666;28;20392;-84
2022/06/15 22:09:20;;;;;;;6.93;4.22;;;13.80;99.90;;;;;;10488479;28;20488;-84
2022/06/15 22:14:21;;;;;;;11.90;4.70;;;13.70;99.90;;;;;;10467181;28;20039;-83
2022/06/15 22:19:21;;;;;;;11.75;5.13;;;13.50;99.90;;;;;;10444826;28;20042;-84
2022/06/15 22:24:22;;;;;;;9.50;5.28;;;13.30;99.90;;;;;;10463376;28;20552;-83
2022/06/15 22:29:23;;;;;;;11.63;5.35;;;13.10;99.90;;;;;;10450672;28;20414;-84
2022/06/15 22:34:23;;;;;;;9.85;5.40;;;12.90;99.90;;;;;;10491429;28;20471;-84
2022/06/15 22:39:24;;;;;;;10.80;5.15;;;13.00;99.90;;;;;;10461920;28;20174;-84
2022/06/15 22:44:25;;;;;;;8.52;5.35;;;12.90;99.90;;;;;;10477044;28;20051;-84
2022/06/15 22:54:45;;;;;;;13.13;5.97;;;12.90;99.90;;;;;;10484823;28;20028;-86
2022/06/15 22:59:46;;;;;;;11.23;6.05;;;13.00;99.90;;;;;;10471824;28;20037;-83
2022/06/15 23:04:46;;;;;;;17.58;11.68;;;13.00;99.90;;;;;;10462913;28;20031;-83
2022/06/15 23:09:47;;;;;;;11.63;6.05;;;12.90;99.90;;;;;;10459750;28;20740;-83
2022/06/15 23:14:47;;;;;;;11.13;5.43;;;12.90;99.90;;;;;;10459485;28;20419;-85
2022/06/15 23:19:48;;;;;;;9.18;4.90;;;12.90;99.90;;;;;;10439678;28;20380;-86
2022/06/15 23:24:50;;;;;;;12.23;5.25;;;13.00;99.90;;;;;;10464305;28;20017;-83
2022/06/15 23:29:55;;;;;;;9.02;5.32;;;12.90;99.90;;;;;;10448586;28;20021;-83
2022/06/15 23:34:55;;;;;;;12.93;6.50;;;12.90;99.90;;;;;;10448215;28;20066;-84
2022/06/15 23:39:56;;;;;;;12.23;6.03;;;12.80;99.90;;;;;;10448606;28;20287;-83
2022/06/15 23:50:20;;;;;;;15.27;7.13;;;12.80;99.90;;;;;;10486635;28;20092;-85
2022/06/15 23:55:20;;;;;;;13.77;6.75;;;12.80;99.90;;;;;;10453577;28;20025;-83
